Time;durP1;ratioP1;P1;durP2;ratioP2;P2;SDS_P1;SDS_P2;PMS_P1;PMS_P2;Temp;Humidity;BMP_temperature;BMP_pressure;BME280_temperature;BME280_humidity;BME280_pressure;Samples;Min_cycle;Max_cycle;Signal;HPM_P1;HPM_P2
2021/08/04 00:00:00;;;;;;;4.55;2.95;;;;;;;20.83;100.00;96204.25;5063954;28;20075;-59
2021/08/04 00:02:28;;;;;;;2.72;2.45;;;;;;;21.75;100.00;96192.00;5048268;28;20095;-59
2021/08/04 00:04:57;;;;;;;3.60;2.85;;;;;;;21.01;100.00;96206.19;5068006;28;20435;-57
2021/08/04 00:07:27;;;;;;;3.03;2.65;;;;;;;20.98;100.00;96196.69;5062244;28;20060;-60
2021/08/04 00:09:55;;;;;;;3.15;2.70;;;;;;;20.96;100.00;96206.84;5043208;28;20072;-59
2021/08/04 00:12:24;;;;;;;4.47;3.10;;;;;;;21.37;100.00;96202.88;5062175;28;20467;-59
2021/08/04 00:14:52;;;;;;;3.88;2.83;;;;;;;21.26;100.00;96209.69;5045565;28;20090;-59
2021/08/04 00:17:21;;;;;;;9.15;2.97;;;;;;;21.37;100.00;96210.06;5062264;28;20083;-59
2021/08/04 00:19:50;;;;;;;4.53;3.20;;;;;;;21.15;100.00;96210.41;5068454;28;20479;-60
2021/08/04 00:22:18;;;;;;;3.83;2.92;;;;;;;21.31;100.00;96212.56;5058695;28;20061;-59
2021/08/04 00:24:48;;;;;;;6.40;2.80;;;;;;;20.59;100.00;96208.50;5063672;28;20064;-58
2021/08/04 00:27:16;;;;;;;5.18;2.97;;;;;;;21.02;100.00;96203.28;5064187;28;20075;-60
2021/08/04 00:29:45;;;;;;;3.78;2.88;;;;;;;21.43;100.00;96206.50;5060102;28;20072;-59
2021/08/04 00:32:13;;;;;;;5.78;2.92;;;;;;;21.19;100.00;96200.06;5064631;28;20107;-59
2021/08/04 00:34:42;;;;;;;5.82;3.15;;;;;;;21.03;100.00;96198.75;5064986;28;20076;-59
2021/08/04 00:37:10;;;;;;;3.47;2.90;;;;;;;21.09;100.00;96196.03;5060033;28;20064;-59
2021/08/04 00:39:38;;;;;;;4.20;2.85;;;;;;;20.78;100.00;96201.38;5061489;28;20064;-59
2021/08/04 00:42:09;;;;;;;4.03;3.13;;;;;;;20.87;100.00;96194.72;5061402;28;20067;-59
2021/08/04 00:44:38;;;;;;;4.85;3.05;;;;;;;20.85;100.00;96194.94;5059447;28;20056;-60
2021/08/04 00:47:06;;;;;;;8.05;3.45;;;;;;;20.69;100.00;96198.13;5067168;28;20072;-59
2021/08/04 00:49:35;;;;;;;5.82;2.80;;;;;;;20.95;100.00;96204.34;5058753;28;21315;-59
2021/08/04 00:52:04;;;;;;;5.88;3.05;;;;;;;20.77;100.00;96199.72;5061565;28;20080;-59
2021/08/04 00:54:32;;;;;;;6.05;3.05;;;;;;;20.80;100.00;96205.47;5044897;28;20063;-60
2021/08/04 00:57:01;;;;;;;3.92;3.10;;;;;;;20.91;100.00;96200.47;5063748;28;20064;-59
2021/08/04 00:59:31;;;;;;;4.07;3.25;;;;;;;20.92;100.00;96202.97;5061288;28;20074;-60
2021/08/04 01:02:06;;;;;;;4.00;3.20;;;;;;;20.74;100.00;96195.63;5061450;28;20068;-59
2021/08/04 01:04:38;;;;;;;4.80;3.20;;;;;;;20.25;100.00;96198.91;5044854;28;20687;-60
2021/08/04 01:07:11;;;;;;;4.15;2.83;;;;;;;21.02;100.00;96202.44;5062660;28;20446;-59
2021/08/04 01:09:43;;;;;;;4.25;3.10;;;;;;;20.36;100.00;96200.94;5062260;28;20072;-59
2021/08/04 01:12:14;;;;;;;5.43;3.15;;;;;;;20.66;100.00;96211.13;5041442;28;20555;-60
2021/08/04 01:14:45;;;;;;;5.13;3.00;;;;;;;21.10;100.00;96210.25;5063374;28;20044;-59
2021/08/04 01:17:14;;;;;;;5.53;3.38;;;;;;;20.09;100.00;96219.75;5064555;28;20087;-59
2021/08/04 01:19:57;;;;;;;5.68;3.10;;;;;;;20.67;100.00;96220.81;5066088;28;20068;-59
2021/08/04 01:22:31;;;;;;;3.95;3.30;;;;;;;21.24;100.00;96210.97;5055816;28;20066;-60
2021/08/04 01:25:06;;;;;;;3.53;3.20;;;;;;;20.69;100.00;96218.75;5044496;28;20091;-59
2021/08/04 01:27:36;;;;;;;4.38;3.17;;;;;;;20.02;100.00;96218.13;5044453;28;20113;-60
2021/08/04 01:30:06;;;;;;;5.45;2.80;;;;;;;19.99;100.00;96210.50;5057617;28;20113;-59
2021/08/04 01:32:34;;;;;;;7.65;3.08;;;;;;;21.05;100.00;96202.84;5066803;28;20060;-60
2021/08/04 01:35:03;;;;;;;4.13;3.42;;;;;;;20.81;100.00;96206.28;5048517;28;20072;-60
2021/08/04 01:37:32;;;;;;;3.42;3.03;;;;;;;20.95;100.00;96210.53;5061088;28;20064;-60
2021/08/04 01:40:01;;;;;;;4.90;3.25;;;;;;;20.84;100.00;96216.59;5057998;28;20080;-59
2021/08/04 01:42:33;;;;;;;5.03;3.25;;;;;;;20.42;100.00;96209.97;5062221;28;20068;-60
2021/08/04 01:45:05;;;;;;;3.38;3.00;;;;;;;20.63;100.00;96205.16;5059519;28;20082;-59
2021/08/04 01:47:34;;;;;;;4.75;2.90;;;;;;;20.14;100.00;96198.53;5056552;28;20068;-60
2021/08/04 01:50:03;;;;;;;10.15;3.53;;;;;;;20.61;100.00;96209.06;5060902;28;20502;-60
2021/08/04 01:52:32;;;;;;;6.65;3.38;;;;;;;20.30;100.00;96199.09;5057201;28;20087;-59
2021/08/04 01:55:02;;;;;;;4.55;3.13;;;;;;;20.44;100.00;96197.19;5057881;28;20063;-59
2021/08/04 01:57:30;;;;;;;5.13;3.40;;;;;;;20.59;100.00;96201.25;5056116;28;20064;-59
2021/08/04 01:59:58;;;;;;;4.80;3.15;;;;;;;20.88;100.00;96195.53;5060729;28;20119;-60
2021/08/04 02:02:28;;;;;;;4.30;3.40;;;;;;;20.30;100.00;96194.59;5062433;28;20095;-60
2021/08/04 02:04:57;;;;;;;4.10;3.10;;;;;;;20.29;100.00;96189.41;5062299;28;20087;-60
2021/08/04 02:07:38;;;;;;;4.18;3.10;;;;;;;20.17;100.00;96191.13;5057735;28;20076;-60
2021/08/04 02:10:09;;;;;;;4.40;3.17;;;;;;;20.76;100.00;96190.06;5059824;28;20551;-59
2021/08/04 02:12:40;;;;;;;6.07;3.70;;;;;;;20.37;100.00;96189.16;5061529;28;20071;-59
2021/08/04 02:15:12;;;;;;;3.97;3.20;;;;;;;20.37;100.00;96190.03;5061725;28;20094;-59
2021/08/04 02:17:45;;;;;;;4.05;3.20;;;;;;;21.06;100.00;96184.91;5062518;28;20068;-60
2021/08/04 02:20:18;;;;;;;5.32;3.63;;;;;;;20.56;100.00;96179.44;5060938;28;20458;-59
2021/08/04 02:22:53;;;;;;;5.68;3.33;;;;;;;20.82;100.00;96184.66;5057238;28;20139;-58
2021/08/04 02:25:22;;;;;;;;;;;;;;;21.22;100.00;96180.88;5057208;28;20519;-58
2021/08/04 02:27:51;;;;;;;4.95;3.47;;;;;;;20.91;100.00;96187.88;5061930;28;20374;-60
2021/08/04 02:30:20;;;;;;;4.53;3.25;;;;;;;21.45;100.00;96178.44;5059865;28;20065;-59
2021/08/04 02:32:51;;;;;;;7.95;3.45;;;;;;;20.99;100.00;96186.78;5059248;28;20182;-59
2021/08/04 02:35:19;;;;;;;4.53;3.58;;;;;;;21.31;100.00;96185.75;5055251;28;20087;-59
2021/08/04 02:37:48;;;;;;;4.13;3.30;;;;;;;20.70;100.00;96188.22;5063188;28;20075;-59
2021/08/04 02:40:17;;;;;;;5.93;3.50;;;;;;;21.01;100.00;96184.72;5058911;28;20060;-59
2021/08/04 02:42:46;;;;;;;3.95;3.50;;;;;;;20.76;100.00;96187.38;5058168;28;20111;-60
2021/08/04 02:45:14;;;;;;;5.80;3.25;;;;;;;21.21;100.00;96189.97;5062058;28;20706;-60
2021/08/04 02:47:43;;;;;;;4.65;3.75;;;;;;;20.97;100.00;96194.25;5055820;28;20067;-59
2021/08/04 02:50:14;;;;;;;5.10;3.20;;;;;;;20.97;100.00;96196.94;5058443;28;20084;-60
2021/08/04 02:52:42;;;;;;;;;;;;;;;20.84;100.00;96192.47;5059723;28;20085;-60
2021/08/04 02:55:12;;;;;;;3.95;3.38;;;;;;;20.68;100.00;96183.09;5052938;28;19952;-60
2021/08/04 02:57:40;;;;;;;5.35;3.88;;;;;;;20.93;100.00;96176.97;5057547;28;20060;-57
2021/08/04 03:00:09;;;;;;;5.57;3.50;;;;;;;20.30;100.00;96175.00;5062831;28;20068;-60
2021/08/04 03:02:38;;;;;;;6.53;3.70;;;;;;;20.44;100.00;96179.28;5060852;28;20048;-60
2021/08/04 03:05:09;;;;;;;5.07;3.58;;;;;;;20.90;100.00;96172.84;5060245;28;20080;-58
2021/08/04 03:07:39;;;;;;;6.93;3.77;;;;;;;20.27;100.00;96170.91;5061815;28;20091;-59
2021/08/04 03:10:09;;;;;;;4.97;3.42;;;;;;;20.95;100.00;96164.97;5061158;28;20478;-60
2021/08/04 03:12:37;;;;;;;4.60;3.97;;;;;;;21.01;100.00;96169.47;5056952;28;20095;-59
2021/08/04 03:15:07;;;;;;;6.43;3.70;;;;;;;20.97;100.00;96176.31;5053202;28;20079;-59
2021/08/04 03:17:35;;;;;;;6.82;3.65;;;;;;;20.90;100.00;96172.03;5056251;28;20530;-60
2021/08/04 03:20:05;;;;;;;4.95;3.47;;;;;;;21.27;100.00;96168.44;5039976;28;20440;-58
2021/08/04 03:22:33;;;;;;;5.70;3.28;;;;;;;20.95;100.00;96169.50;5039504;28;20083;-59
2021/08/04 03:25:03;;;;;;;4.47;3.63;;;;;;;20.95;100.00;96181.03;5056980;28;20462;-60
2021/08/04 03:27:32;;;;;;;6.68;3.72;;;;;;;21.26;100.00;96179.38;5065858;28;20072;-59
2021/08/04 03:30:00;;;;;;;4.30;3.17;;;;;;;20.81;100.00;96182.19;5061498;28;20541;-59
2021/08/04 03:32:28;;;;;;;12.13;3.78;;;;;;;20.88;100.00;96177.59;5058723;28;20502;-59
2021/08/04 03:34:57;;;;;;;5.15;3.50;;;;;;;21.26;100.00;96176.69;5047397;28;20068;-59
2021/08/04 03:37:25;;;;;;;5.28;3.67;;;;;;;;;;5065573;28;20528;-59
2021/08/04 03:39:53;;;;;;;5.72;3.30;;;;;;;20.60;100.00;96177.97;5062045;28;20056;-59
2021/08/04 03:42:23;;;;;;;8.05;3.60;;;;;;;21.13;100.00;96171.44;5059231;28;20079;-59
2021/08/04 03:44:51;;;;;;;5.00;3.20;;;;;;;21.06;100.00;96175.00;5067008;28;20064;-59
2021/08/04 03:47:20;;;;;;;5.13;3.38;;;;;;;21.17;100.00;96178.03;5062767;28;20091;-59
2021/08/04 03:49:48;;;;;;;4.15;3.42;;;;;;;20.97;100.00;96175.50;5054741;28;20526;-60
2021/08/04 03:52:16;;;;;;;7.65;3.85;;;;;;;20.79;100.00;96178.91;5055400;28;20067;-60
2021/08/04 03:54:45;;;;;;;5.75;3.78;;;;;;;20.52;100.00;96188.94;5061858;28;20068;-59
2021/08/04 03:57:13;;;;;;;4.82;3.42;;;;;;;21.00;100.00;96175.88;5061554;28;20073;-60
2021/08/04 03:59:43;;;;;;;5.70;3.58;;;;;;;21.03;100.00;96180.00;5057334;28;20084;-59
2021/08/04 04:02:12;;;;;;;6.88;3.70;;;;;;;21.24;100.00;96178.81;5064337;28;20478;-60
2021/08/04 04:04:40;;;;;;;4.20;3.13;;;;;;;20.99;100.00;96178.75;5063837;28;20076;-58
2021/08/04 04:07:09;;;;;;;7.25;3.92;;;;;;;21.00;100.00;96175.88;5053028;28;20072;-59
2021/08/04 04:09:37;;;;;;;7.13;3.50;;;;;;;21.15;100.00;96172.06;5064702;28;20075;-60
2021/08/04 04:12:06;;;;;;;4.65;3.50;;;;;;;21.58;100.00;96169.47;5064246;28;20075;-59
2021/08/04 04:14:34;;;;;;;3.60;3.05;;;;;;;21.05;100.00;96170.66;5061766;28;20102;-59
2021/08/04 04:17:05;;;;;;;5.30;3.40;;;;;;;21.54;100.00;96170.91;5066966;28;20081;-59
2021/08/04 04:19:33;;;;;;;6.32;3.17;;;;;;;21.62;100.00;96169.84;5063961;28;20064;-59
2021/08/04 04:22:01;;;;;;;6.32;3.25;;;;;;;21.01;100.00;96174.00;5060766;28;20076;-59
2021/08/04 04:24:30;;;;;;;5.20;3.30;;;;;;;21.45;100.00;96159.66;5061728;28;20063;-59
2021/08/04 04:26:58;;;;;;;5.82;3.35;;;;;;;21.93;100.00;96169.72;5062465;28;20065;-59
2021/08/04 04:29:27;;;;;;;7.28;3.80;;;;;;;21.75;100.00;96167.03;5061522;28;20080;-60
2021/08/04 04:31:55;;;;;;;4.15;3.13;;;;;;;21.79;100.00;96176.25;5062977;28;20464;-57
2021/08/04 04:34:25;;;;;;;5.57;3.13;;;;;;;21.96;100.00;96179.19;5063019;28;20076;-59
2021/08/04 04:36:53;;;;;;;6.50;3.83;;;;;;;21.13;100.00;96166.91;5060987;28;20064;-59
2021/08/04 04:39:21;;;;;;;5.82;3.58;;;;;;;21.80;100.00;96169.84;5058077;28;20522;-59
2021/08/04 04:41:50;;;;;;;6.07;3.50;;;;;;;21.73;100.00;96164.53;5058477;28;20056;-58
2021/08/04 04:44:18;;;;;;;3.97;3.22;;;;;;;21.29;100.00;96170.91;5065747;28;20091;-60
2021/08/04 04:46:46;;;;;;;5.25;3.33;;;;;;;21.41;100.00;96165.69;5064460;28;20080;-59
2021/08/04 04:49:15;;;;;;;3.95;3.38;;;;;;;21.31;100.00;96174.19;5062486;28;20538;-60
2021/08/04 04:51:45;;;;;;;4.65;3.40;;;;;;;21.42;100.00;96170.81;5057069;28;20072;-60
2021/08/04 04:54:13;;;;;;;5.78;3.17;;;;;;;22.20;100.00;96166.75;5063996;28;20064;-59
2021/08/04 04:56:42;;;;;;;5.63;3.30;;;;;;;22.47;100.00;96176.13;5051536;22;20577;-59
2021/08/04 04:59:11;;;;;;;5.93;3.20;;;;;;;22.64;100.00;96181.72;5015343;28;20046;-60
2021/08/04 05:01:40;;;;;;;6.00;3.30;;;;;;;22.40;100.00;96179.94;5011052;28;20073;-59
2021/08/04 05:04:08;;;;;;;5.20;3.40;;;;;;;22.94;100.00;96173.63;5007561;28;20074;-58
2021/08/04 05:06:37;;;;;;;5.45;3.03;;;;;;;22.73;100.00;96191.06;5012189;28;20077;-58
2021/08/04 05:09:07;;;;;;;5.85;3.28;;;;;;;22.63;100.00;96195.34;5013653;28;20069;-57
2021/08/04 05:11:35;;;;;;;4.80;3.35;;;;;;;23.15;100.00;96192.97;5006520;28;20057;-58
2021/08/04 05:14:03;;;;;;;6.28;3.10;;;;;;;22.40;100.00;96193.38;5017092;28;20096;-57
2021/08/04 05:16:32;;;;;;;12.98;3.40;;;;;;;22.75;100.00;96193.56;5010469;28;20074;-59
2021/08/04 05:19:00;;;;;;;6.45;3.15;;;;;;;23.26;100.00;96192.19;5010261;28;20535;-58
2021/08/04 05:21:29;;;;;;;4.22;3.20;;;;;;;23.15;100.00;96193.81;5009342;28;20073;-58
2021/08/04 05:23:57;;;;;;;6.88;3.40;;;;;;;23.11;100.00;96197.19;5013211;28;20065;-57
2021/08/04 05:26:27;;;;;;;7.18;2.95;;;;;;;23.01;100.00;96192.38;5007452;28;20081;-57
2021/08/04 05:28:56;;;;;;;4.88;3.05;;;;;;;23.10;100.00;96191.00;5011899;28;20084;-53
2021/08/04 05:31:24;;;;;;;5.78;3.08;;;;;;;22.27;100.00;96194.38;5005971;28;20181;-59
2021/08/04 05:33:53;;;;;;;7.40;3.33;;;;;;;22.66;100.00;96194.91;5008732;28;20081;-57
2021/08/04 05:36:21;;;;;;;4.28;3.05;;;;;;;22.58;100.00;96195.22;5008755;28;20073;-56
2021/08/04 05:38:49;;;;;;;4.60;3.30;;;;;;;22.74;100.00;96195.41;5009239;28;20061;-59
2021/08/04 05:41:18;;;;;;;5.55;3.45;;;;;;;22.67;100.00;96197.34;5004653;28;20101;-56
2021/08/04 05:43:47;;;;;;;3.97;2.92;;;;;;;22.94;100.00;96189.78;5011416;28;20604;-52
2021/08/04 05:46:16;;;;;;;9.93;3.65;;;;;;;23.08;100.00;96190.41;5008480;28;20076;-58
2021/08/04 05:48:44;;;;;;;5.03;3.40;;;;;;;23.37;100.00;96201.34;5007721;28;20528;-59
2021/08/04 05:51:13;;;;;;;5.32;3.17;;;;;;;23.64;100.00;96199.00;5011483;28;20070;-55
2021/08/04 05:53:41;;;;;;;4.03;3.03;;;;;;;23.74;100.00;96191.22;5014145;28;20075;-58
2021/08/04 05:56:10;;;;;;;4.22;3.40;;;;;;;23.61;100.00;96199.50;5007974;28;20086;-58
2021/08/04 05:58:38;;;;;;;4.53;3.00;;;;;;;23.46;100.00;96192.69;5008681;28;20441;-56
2021/08/04 06:01:08;;;;;;;4.22;2.90;;;;;;;23.75;100.00;96187.47;5009409;28;20072;-57
2021/08/04 06:03:37;;;;;;;3.88;2.67;;;;;;;24.08;100.00;96184.16;5007123;28;20061;-58
2021/08/04 06:06:06;;;;;;;4.47;2.65;;;;;;;24.12;100.00;96184.50;5008144;28;20077;-59
2021/08/04 06:08:34;;;;;;;3.13;2.50;;;;;;;23.44;100.00;96194.00;5010798;28;20106;-58
2021/08/04 06:11:03;;;;;;;6.63;2.95;;;;;;;23.07;100.00;96187.94;5010191;28;20085;-58
2021/08/04 06:13:31;;;;;;;5.72;2.70;;;;;;;23.90;100.00;96171.66;5004993;28;20057;-59
2021/08/04 06:16:00;;;;;;;6.45;2.92;;;;;;;24.02;100.00;96174.34;5006986;28;20068;-58
2021/08/04 06:18:30;;;;;;;4.53;2.55;;;;;;;24.16;100.00;96178.44;5013531;28;20109;-55
2021/08/04 06:21:01;;;;;;;5.70;2.47;;;;;;;23.19;100.00;96188.78;5009853;28;20058;-56
2021/08/04 06:23:38;;;;;;;6.68;2.42;;;;;;;23.24;100.00;96202.38;5010152;28;20070;-57
2021/08/04 06:26:06;;;;;;;3.50;2.40;;;;;;;23.09;100.00;96199.28;5009287;28;20085;-57
2021/08/04 06:28:43;;;;;;;3.70;2.42;;;;;;;24.51;100.00;96180.25;5007589;28;20460;-57
2021/08/04 06:31:12;;;;;;;8.98;2.60;;;;;;;24.76;100.00;96182.59;5002227;28;20526;-54
2021/08/04 06:33:42;;;;;;;3.20;2.60;;;;;;;23.86;100.00;96183.16;5009489;28;20070;-54
2021/08/04 06:36:11;;;;;;;6.47;2.55;;;;;;;24.63;100.00;96188.28;5008386;28;20066;-59
2021/08/04 06:38:39;;;;;;;2.92;2.13;;;;;;;24.81;99.79;96192.66;5004497;28;20115;-59
2021/08/04 06:41:08;;;;;;;4.00;2.70;;;;;;;24.52;95.23;96191.84;5003561;28;20464;-54
2021/08/04 06:43:36;;;;;;;3.35;2.47;;;;;;;25.13;85.90;96186.81;5003711;28;20467;-55
2021/08/04 06:46:09;;;;;;;5.03;2.10;;;;;;;25.74;77.56;96188.63;5002319;28;20072;-56
2021/08/04 06:48:44;;;;;;;2.72;2.10;;;;;;;24.99;85.52;96192.47;5003689;28;20532;-58
2021/08/04 06:51:16;;;;;;;2.30;2.00;;;;;;;23.64;92.27;96199.00;5007895;28;20054;-58
2021/08/04 06:53:48;;;;;;;3.80;1.90;;;;;;;24.80;83.88;96197.22;5006438;28;20062;-59
2021/08/04 06:56:17;;;;;;;2.85;1.95;;;;;;;24.92;73.30;96185.59;5001618;28;20081;-58
2021/08/04 06:58:45;;;;;;;3.83;2.20;;;;;;;24.95;78.53;96185.94;5010133;28;20496;-58
2021/08/04 07:01:14;;;;;;;2.30;2.08;;;;;;;24.60;74.51;96189.59;5012447;28;24413;-60
2021/08/04 07:03:44;;;;;;;3.10;2.10;;;;;;;25.14;73.69;96181.16;5015436;28;20441;-56
2021/08/04 07:06:13;;;;;;;2.40;1.80;;;;;;;24.95;77.41;96183.22;5009515;28;20068;-58
2021/08/04 07:08:41;;;;;;;3.63;2.10;;;;;;;25.31;72.77;96184.69;5008338;28;20065;-57
2021/08/04 07:11:09;;;;;;;2.78;1.90;;;;;;;25.37;73.87;96179.38;5009688;28;20077;-57
2021/08/04 07:13:38;;;;;;;3.28;2.05;;;;;;;25.39;71.76;96179.94;5010080;28;20082;-58
2021/08/04 07:16:07;;;;;;;3.45;2.05;;;;;;;24.29;78.83;96179.19;5010234;28;20073;-58
2021/08/04 07:18:35;;;;;;;2.45;2.25;;;;;;;25.62;69.85;96182.47;5008481;28;20455;-56
2021/08/04 07:21:05;;;;;;;5.32;2.40;;;;;;;24.59;79.35;96185.25;5008196;28;20449;-59
2021/08/04 07:23:33;;;;;;;4.00;2.30;;;;;;;25.09;79.18;96184.56;5005734;28;20539;-58
2021/08/04 07:26:02;;;;;;;2.30;2.03;;;;;;;25.24;75.91;96184.03;5006466;28;20551;-60
2021/08/04 07:28:30;;;;;;;3.10;2.00;;;;;;;25.71;67.22;96191.81;5006595;28;20709;-60
2021/08/04 07:30:59;;;;;;;2.45;1.70;;;;;;;23.74;83.83;96201.16;5007119;28;20076;-59
2021/08/04 07:33:27;;;;;;;2.60;1.90;;;;;;;23.86;86.46;96193.91;5004193;28;20087;-57
2021/08/04 07:35:56;;;;;;;3.10;1.83;;;;;;;24.79;78.04;96190.22;5007164;28;20065;-60
2021/08/04 07:38:26;;;;;;;3.08;1.90;;;;;;;24.83;77.10;96188.66;5005414;28;20069;-58
2021/08/04 07:40:54;;;;;;;2.67;1.83;;;;;;;23.73;83.73;96186.06;5010111;28;20077;-57
2021/08/04 07:43:22;;;;;;;2.40;1.83;;;;;;;25.10;75.75;96185.38;5008020;28;20072;-56
2021/08/04 07:45:51;;;;;;;2.38;1.98;;;;;;;25.75;69.20;96186.72;5007067;28;20045;-58
2021/08/04 07:48:19;;;;;;;2.60;1.92;;;;;;;25.62;72.53;96178.97;5005753;28;20068;-53
2021/08/04 07:50:48;;;;;;;2.45;1.67;;;;;;;24.51;73.51;96185.63;5006097;28;20058;-55
2021/08/04 07:53:16;;;;;;;3.83;2.20;;;;;;;24.93;74.10;96184.53;5007480;28;20092;-55
2021/08/04 07:55:46;;;;;;;1.67;1.58;;;;;;;26.12;62.38;96181.63;5006837;28;20092;-59
2021/08/04 07:58:15;;;;;;;2.33;1.80;;;;;;;25.77;65.33;96180.03;5005441;28;20061;-56
2021/08/04 08:00:43;;;;;;;3.10;1.80;;;;;;;24.89;75.96;96183.38;5005235;28;20073;-57
2021/08/04 08:03:30;;;;;;;3.35;2.00;;;;;;;25.16;72.17;96179.03;5006551;28;20057;-58
2021/08/04 08:05:59;;;;;;;2.53;1.98;;;;;;;25.61;65.14;96174.63;5006324;28;20041;-58
2021/08/04 08:08:27;;;;;;;1.95;1.70;;;;;;;25.89;61.06;96173.72;5004870;28;20085;-53
2021/08/04 08:10:57;;;;;;;2.05;1.80;;;;;;;25.15;66.78;96174.69;5007040;28;20088;-60
2021/08/04 08:13:25;;;;;;;2.75;1.75;;;;;;;26.36;58.78;96165.97;5005250;28;20061;-58
2021/08/04 08:15:54;;;;;;;2.40;1.80;;;;;;;25.33;63.23;96174.47;5005022;28;20174;-59
2021/08/04 08:18:22;;;;;;;2.20;1.75;;;;;;;26.34;56.67;96175.41;5005023;28;20069;-60
2021/08/04 08:20:51;;;;;;;1.80;1.60;;;;;;;25.83;58.11;96178.22;5007065;28;20072;-60
2021/08/04 08:27:14;;;;;;;2.22;1.70;;;;;;;23.92;76.95;96183.03;5005491;28;20041;-58
2021/08/04 08:29:42;;;;;;;3.40;1.80;;;;;;;25.39;61.90;96182.63;5004744;28;20069;-59
2021/08/04 08:32:10;;;;;;;2.90;1.88;;;;;;;24.92;64.73;96174.81;5004349;28;20080;-57
2021/08/04 08:34:39;;;;;;;1.90;1.67;;;;;;;24.86;67.79;96179.28;5007640;28;20473;-59
2021/08/04 08:37:07;;;;;;;2.58;1.83;;;;;;;24.49;70.94;96184.22;5003310;28;20078;-57
2021/08/04 08:39:36;;;;;;;4.63;1.70;;;;;;;23.84;81.86;96182.53;5004106;28;20069;-57
2021/08/04 08:42:05;;;;;;;3.35;1.80;;;;;;;24.21;74.09;96176.88;5006077;28;20073;-57
2021/08/04 08:44:34;;;;;;;4.10;1.70;;;;;;;26.01;63.20;96183.34;5009030;28;20073;-56
2021/08/04 08:47:07;;;;;;;2.42;1.80;;;;;;;25.45;67.21;96178.97;5012122;28;20085;-58
2021/08/04 08:49:35;;;;;;;2.20;1.80;;;;;;;25.22;65.10;96183.44;5006584;28;20447;-57
2021/08/04 08:52:05;;;;;;;2.40;1.90;;;;;;;25.21;67.05;96184.50;5007141;28;20069;-58
2021/08/04 08:54:33;;;;;;;2.15;1.90;;;;;;;25.65;65.22;96179.28;5007236;28;20062;-56
2021/08/04 08:57:02;;;;;;;2.33;1.70;;;;;;;26.27;59.80;96178.28;5007104;28;20065;-58
2021/08/04 08:59:30;;;;;;;2.28;1.70;;;;;;;25.72;62.61;96174.53;5008097;28;20084;-58
2021/08/04 09:02:00;;;;;;;2.00;1.70;;;;;;;25.71;64.26;96164.78;5010939;28;20077;-59
2021/08/04 09:04:28;;;;;;;4.15;1.85;;;;;;;26.17;59.28;96167.34;5004963;28;20070;-59
2021/08/04 09:07:00;;;;;;;2.25;1.73;;;;;;;27.15;54.49;96168.22;5008906;28;20076;-60
2021/08/04 09:09:29;;;;;;;2.10;1.83;;;;;;;26.91;56.77;96165.00;5007133;28;20095;-59
2021/08/04 09:12:13;;;;;;;2.78;1.88;;;;;;;26.43;57.85;96163.09;5010724;28;20288;-57
2021/08/04 09:14:43;;;;;;;2.42;1.80;;;;;;;26.26;68.37;96163.97;5007461;28;20042;-59
2021/08/04 09:17:14;;;;;;;2.60;1.90;;;;;;;27.09;52.62;96160.28;5006259;28;20577;-53
2021/08/04 09:19:46;;;;;;;2.20;1.70;;;;;;;27.57;59.63;96159.34;5012307;28;20681;-60
2021/08/04 09:22:20;;;;;;;3.58;1.80;;;;;;;26.99;57.23;96166.41;5007182;28;20061;-60
2021/08/04 09:24:56;;;;;;;1.60;1.50;;;;;;;27.94;54.24;96163.94;5006720;28;20066;-58
2021/08/04 09:27:45;;;;;;;2.55;1.90;;;;;;;27.71;50.76;96156.22;5006625;28;20065;-56
2021/08/04 09:30:17;;;;;;;3.45;2.10;;;;;;;26.25;56.39;96159.59;5005935;28;20038;-56
2021/08/04 09:32:47;;;;;;;2.10;1.90;;;;;;;27.82;54.22;96156.03;5008204;28;20516;-56
2021/08/04 09:35:18;;;;;;;2.35;1.80;;;;;;;29.26;47.04;96150.06;5007513;28;20100;-55
2021/08/04 09:37:47;;;;;;;3.75;1.83;;;;;;;27.99;49.77;96149.63;5010181;28;20073;-57
2021/08/04 09:40:18;;;;;;;3.42;1.90;;;;;;;28.17;50.36;96152.69;5009895;28;20544;-54
2021/08/04 09:42:50;;;;;;;2.60;1.80;;;;;;;27.86;49.79;96140.06;5007945;28;20073;-57
2021/08/04 09:45:21;;;;;;;2.30;1.80;;;;;;;27.87;49.86;96144.41;5006971;28;20509;-54
2021/08/04 09:47:59;;;;;;;3.35;2.03;;;;;;;26.22;53.84;96146.59;5007957;28;20053;-56
2021/08/04 09:50:28;;;;;;;2.15;1.75;;;;;;;27.03;53.82;96142.34;5010818;28;20085;-57
2021/08/04 09:52:57;;;;;;;2.78;2.08;;;;;;;25.94;56.21;96139.47;5013113;28;20073;-56
2021/08/04 09:55:26;;;;;;;2.73;1.77;;;;;;;27.84;49.41;96136.78;5001230;28;20066;-58
2021/08/04 09:57:55;;;;;;;3.47;1.80;;;;;;;27.15;51.49;96140.31;5008028;28;20072;-57
2021/08/04 10:00:24;;;;;;;3.63;1.77;;;;;;;27.99;48.19;96130.66;5009272;28;20077;-56
2021/08/04 10:02:52;;;;;;;1.98;1.50;;;;;;;28.82;45.14;96126.09;5009728;28;20061;-57
2021/08/04 10:05:24;;;;;;;2.72;1.80;;;;;;;27.47;50.03;96136.81;5005561;28;20089;-54
2021/08/04 10:08:03;;;;;;;2.60;1.80;;;;;;;26.55;52.91;96134.03;5012669;28;20085;-56
2021/08/04 10:10:33;;;;;;;2.83;1.75;;;;;;;25.85;54.70;96127.47;5006855;28;20073;-58
2021/08/04 10:13:03;;;;;;;2.78;2.00;;;;;;;26.83;54.38;96118.63;5008261;28;20073;-58
2021/08/04 10:15:39;;;;;;;2.47;1.70;;;;;;;27.16;50.26;96128.44;5007879;28;20058;-51
2021/08/04 10:18:09;;;;;;;2.42;1.70;;;;;;;27.13;50.20;96126.25;5010072;28;20546;-58
2021/08/04 10:20:39;;;;;;;;;;;;;;;27.37;48.78;96122.09;5004544;28;20088;-56
2021/08/04 10:23:08;;;;;;;2.63;1.92;;;;;;;26.64;53.46;96123.59;5007954;28;19968;-55
2021/08/04 10:25:37;;;;;;;2.20;1.77;;;;;;;27.60;49.53;96123.63;5006451;28;20494;-57
2021/08/04 10:28:06;;;;;;;2.13;1.75;;;;;;;26.25;53.79;96120.94;5006030;28;20080;-57
2021/08/04 10:30:34;;;;;;;5.80;1.80;;;;;;;27.05;51.51;96130.22;5007154;28;20076;-55
2021/08/04 10:33:04;;;;;;;2.22;1.70;;;;;;;27.27;52.66;96132.84;5007571;28;20069;-59
2021/08/04 10:35:35;;;;;;;4.05;1.98;;;;;;;26.69;50.56;96140.66;5005643;28;20061;-56
2021/08/04 10:38:05;;;;;;;2.30;1.80;;;;;;;25.60;55.36;96141.38;5011648;28;20085;-58
2021/08/04 10:40:33;;;;;;;;;;;;;;;25.48;57.17;96143.38;5006279;28;20489;-56
2021/08/04 10:43:02;;;;;;;2.60;1.92;;;;;;;26.34;52.84;96132.13;5005379;28;20418;-56
2021/08/04 10:45:35;;;;;;;2.00;1.80;;;;;;;27.09;50.75;96133.22;5007218;28;20073;-58
2021/08/04 10:48:24;;;;;;;2.05;1.63;;;;;;;26.01;54.72;96137.41;5006324;28;20072;-55
2021/08/04 10:51:13;;;;;;;3.08;1.83;;;;;;;26.98;53.12;96125.00;5007319;28;20046;-59
2021/08/04 10:54:14;;;;;;;2.10;1.70;;;;;;;26.02;58.78;96127.44;5005998;28;20477;-58
2021/08/04 10:57:14;;;;;;;2.20;1.80;;;;;;;24.41;64.44;96120.72;5004061;28;20061;-57
2021/08/04 10:59:43;;;;;;;2.50;1.85;;;;;;;26.16;55.13;96115.19;5007902;28;20033;-55
2021/08/04 11:02:31;;;;;;;2.25;1.73;;;;;;;28.01;48.07;96121.19;5008727;28;20093;-59
2021/08/04 11:05:01;;;;;;;3.00;1.80;;;;;;;26.97;54.10;96128.75;4991562;28;20053;-57
2021/08/04 11:07:30;;;;;;;2.00;1.42;;;;;;;27.80;51.35;96120.22;5006547;28;20042;-59
2021/08/04 11:10:02;;;;;;;3.28;1.90;;;;;;;27.96;48.19;96117.63;5005024;28;20317;-59
2021/08/04 11:12:43;;;;;;;2.22;1.70;;;;;;;28.86;47.93;96115.50;5005664;28;20062;-60
2021/08/04 11:15:28;;;;;;;2.30;1.60;;;;;;;29.82;44.47;96111.16;5009600;28;20107;-59
2021/08/04 11:18:01;;;;;;;1.98;1.67;;;;;;;28.18;48.79;96107.41;5008038;28;20066;-59
2021/08/04 11:20:30;;;;;;;1.98;1.67;;;;;;;28.53;46.15;96111.38;5009276;28;20065;-59
2021/08/04 11:22:59;;;;;;;3.53;1.80;;;;;;;29.33;45.01;96103.63;5010365;28;20077;-60
2021/08/04 11:25:38;;;;;;;2.28;1.58;;;;;;;28.89;45.29;96101.38;5005859;28;20080;-56
2021/08/04 11:28:18;;;;;;;2.58;1.80;;;;;;;27.17;49.89;96106.50;5004124;28;20542;-60
2021/08/04 11:30:51;;;;;;;2.15;1.77;;;;;;;27.47;47.70;96093.47;5011170;28;20061;-59
2021/08/04 11:33:36;;;;;;;3.55;1.83;;;;;;;28.65;44.89;96092.94;5006249;28;20045;-59
2021/08/04 11:36:17;;;;;;;2.05;1.63;;;;;;;28.00;45.90;96102.47;5005715;28;20053;-59
2021/08/04 11:38:54;;;;;;;3.40;1.70;;;;;;;27.52;50.16;96093.47;5003163;28;20069;-54
2021/08/04 11:41:36;;;;;;;3.25;1.95;;;;;;;27.06;52.14;96104.75;4989240;28;20070;-58
2021/08/04 11:44:20;;;;;;;6.20;1.85;;;;;;;27.05;50.76;96105.84;5016357;28;20046;-51
2021/08/04 11:46:52;;;;;;;2.63;1.70;;;;;;;27.05;52.89;96092.31;5009447;28;20310;-55